Time;durP1;ratioP1;P1;durP2;ratioP2;P2;SDS_P1;SDS_P2;PMS_P1;PMS_P2;Temp;Humidity;BMP_temperature;BMP_pressure;BME280_temperature;BME280_humidity;BME280_pressure;Samples;Min_cycle;Max_cycle;Signal;HPM_P1;HPM_P2
2022/09/05 00:02:17;;;;;;;4.25;2.15;;;23.20;69.40;;;;;;6097060;23;20007;-69
2022/09/05 00:05:11;;;;;;;4.38;1.90;;;23.20;69.30;;;;;;6096799;23;20010;-69
2022/09/05 00:07:43;;;;;;;3.67;2.70;;;23.20;69.20;;;;;;6096687;23;20008;-68
2022/09/05 00:10:40;;;;;;;3.00;1.92;;;23.20;69.10;;;;;;6097278;23;20082;-69
2022/09/05 00:13:16;;;;;;;4.13;1.90;;;23.20;69.00;;;;;;6097153;23;20006;-69
2022/09/05 00:16:02;;;;;;;5.15;2.00;;;23.20;68.70;;;;;;6096983;23;20070;-68
2022/09/05 00:18:46;;;;;;;2.47;1.75;;;23.20;68.30;;;;;;6096947;23;20481;-68
2022/09/05 00:21:30;;;;;;;3.85;2.25;;;23.10;67.90;;;;;;6097388;23;20017;-69
2022/09/05 00:24:08;;;;;;;5.75;1.70;;;23.20;67.70;;;;;;6096839;23;20035;-68
2022/09/05 00:26:56;;;;;;;4.13;1.65;;;23.10;67.30;;;;;;6096758;23;20485;-69
2022/09/05 00:29:28;;;;;;;2.45;1.50;;;23.10;67.30;;;;;;6096763;23;20533;-69
2022/09/05 00:32:11;;;;;;;3.75;1.85;;;23.10;66.70;;;;;;6097589;23;20009;-68
2022/09/05 00:34:58;;;;;;;4.68;2.20;;;23.10;66.90;;;;;;6097234;23;20021;-69
2022/09/05 00:37:35;;;;;;;7.72;3.25;;;23.00;67.60;;;;;;6096840;23;20041;-68
2022/09/05 00:40:31;;;;;;;5.53;2.30;;;23.00;68.10;;;;;;6096698;23;20002;-67
2022/09/05 00:43:15;;;;;;;4.72;2.10;;;22.90;68.50;;;;;;6096845;23;20075;-69
2022/09/05 00:45:50;;;;;;;7.07;2.40;;;22.90;68.80;;;;;;6096739;23;20337;-68
2022/09/05 00:48:43;;;;;;;4.75;2.22;;;22.80;69.10;;;;;;6096761;23;20057;-69
2022/09/05 00:51:19;;;;;;;;;;;22.80;69.10;;;;;;6097511;23;20003;-69
2022/09/05 00:54:14;;;;;;;5.15;1.85;;;22.80;68.90;;;;;;6096646;23;19908;-68
2022/09/05 00:56:49;;;;;;;3.92;2.00;;;22.80;68.70;;;;;;6018874;23;20050;-68
2022/09/05 00:59:33;;;;;;;3.20;1.80;;;22.80;68.60;;;;;;6092980;23;20018;-67
2022/09/05 01:01:59;;;;;;;3.45;2.00;;;22.80;68.50;;;;;;6093506;23;20057;-68
2022/09/05 01:05:02;;;;;;;2.35;1.90;;;22.70;68.60;;;;;;6094128;23;20077;-69
2022/09/05 01:08:02;;;;;;;4.28;1.85;;;22.70;68.70;;;;;;6096241;23;20026;-68
2022/09/05 01:10:52;;;;;;;2.85;1.77;;;22.70;68.60;;;;;;6096558;23;20089;-69
2022/09/05 01:13:39;;;;;;;5.53;2.22;;;22.70;68.60;;;;;;6096358;23;20077;-68
2022/09/05 01:16:14;;;;;;;5.47;1.90;;;22.70;68.60;;;;;;6096718;23;20006;-69
2022/09/05 01:19:00;;;;;;;3.45;1.98;;;22.70;68.60;;;;;;6096364;23;20505;-69
2022/09/05 01:21:36;;;;;;;3.88;1.80;;;22.70;68.70;;;;;;6096532;23;20348;-69
2022/09/05 01:24:02;;;;;;;4.45;1.90;;;22.60;69.10;;;;;;6096644;23;20006;-68
2022/09/05 01:26:58;;;;;;;3.92;2.20;;;22.60;68.90;;;;;;6096857;23;20006;-68
2022/09/05 01:29:39;;;;;;;2.70;1.85;;;22.60;68.80;;;;;;6096286;23;20021;-68
2022/09/05 01:32:37;;;;;;;4.22;2.10;;;22.50;68.70;;;;;;6096647;23;19999;-69
2022/09/05 01:35:21;;;;;;;5.40;1.75;;;22.50;68.70;;;;;;6096106;23;20003;-69
2022/09/05 01:38:05;;;;;;;2.13;1.77;;;22.50;68.90;;;;;;6097357;23;20054;-69
2022/09/05 01:40:33;;;;;;;3.33;2.08;;;22.50;69.00;;;;;;6098351;23;20012;-67
2022/09/05 01:43:24;;;;;;;5.53;1.92;;;22.50;68.90;;;;;;6098146;23;20006;-69
2022/09/05 01:46:08;;;;;;;2.72;1.88;;;22.40;68.70;;;;;;6098363;23;20089;-69
2022/09/05 01:49:02;;;;;;;2.53;2.17;;;22.40;69.00;;;;;;6098264;23;20053;-69
2022/09/05 01:51:56;;;;;;;4.03;2.10;;;22.40;69.50;;;;;;6078759;23;20014;-67
2022/09/05 01:55:00;;;;;;;2.95;1.95;;;22.40;69.50;;;;;;6098203;23;20014;-68
2022/09/05 01:57:56;;;;;;;2.88;2.00;;;22.40;69.70;;;;;;6065190;23;20425;-70
2022/09/05 02:00:30;;;;;;;2.70;2.05;;;22.30;69.80;;;;;;6097801;23;20029;-69
2022/09/05 02:03:20;;;;;;;6.22;2.17;;;22.30;69.80;;;;;;6098105;23;20315;-69
2022/09/05 02:06:10;;;;;;;3.58;2.20;;;22.30;69.90;;;;;;6072402;23;20338;-69
2022/09/05 02:08:47;;;;;;;3.35;2.08;;;22.30;69.80;;;;;;6097874;23;20342;-68
2022/09/05 02:11:15;;;;;;;4.32;1.92;;;22.20;69.70;;;;;;6097625;23;20498;-68
2022/09/05 02:13:51;;;;;;;4.22;1.90;;;22.30;69.90;;;;;;6097841;23;20093;-67
2022/09/05 02:16:51;;;;;;;4.93;2.08;;;22.20;69.90;;;;;;6097767;23;20014;-70
2022/09/05 02:19:30;;;;;;;2.08;1.58;;;22.20;70.00;;;;;;6051189;23;20022;-69
2022/09/05 02:22:05;;;;;;;3.03;1.58;;;22.20;69.60;;;;;;6098022;23;20012;-69
2022/09/05 02:24:36;;;;;;;2.05;1.48;;;22.20;69.40;;;;;;6097773;23;20021;-68
2022/09/05 02:27:08;;;;;;;6.25;1.42;;;22.10;69.10;;;;;;6098027;23;20002;-68
2022/09/05 02:29:33;;;;;;;3.40;1.58;;;22.10;68.80;;;;;;6097497;23;20062;-70
2022/09/05 02:32:38;;;;;;;6.80;2.33;;;22.20;68.60;;;;;;6097802;23;20006;-68
2022/09/05 02:35:24;;;;;;;4.15;1.50;;;22.10;68.50;;;;;;6097816;23;20033;-69
2022/09/05 02:38:18;;;;;;;2.05;1.25;;;22.20;68.20;;;;;;6097717;23;20034;-70
2022/09/05 02:40:57;;;;;;;6.70;1.30;;;22.10;67.70;;;;;;6097366;23;20006;-69
2022/09/05 02:43:45;;;;;;;4.60;1.45;;;22.20;67.60;;;;;;6097785;23;20017;-69
2022/09/05 02:46:29;;;;;;;5.18;2.28;;;22.20;67.40;;;;;;6097914;23;20037;-68
2022/09/05 02:49:09;;;;;;;3.80;1.60;;;22.20;67.20;;;;;;6097246;23;20010;-69
2022/09/05 02:51:49;;;;;;;2.33;1.10;;;22.20;67.00;;;;;;6097991;23;20014;-67
2022/09/05 02:54:21;;;;;;;4.38;1.45;;;22.20;67.00;;;;;;6097654;23;20003;-68
2022/09/05 02:56:52;;;;;;;4.35;2.00;;;22.20;66.90;;;;;;6097367;23;20002;-68
2022/09/05 02:59:56;;;;;;;2.90;1.70;;;22.20;67.30;;;;;;6097407;23;20090;-68
2022/09/05 03:02:43;;;;;;;9.45;1.80;;;22.20;67.60;;;;;;6097516;23;20005;-69
2022/09/05 03:05:23;;;;;;;4.65;2.15;;;22.20;67.90;;;;;;6097065;23;20013;-68
2022/09/05 03:07:58;;;;;;;7.25;1.90;;;22.10;68.10;;;;;;6097367;23;20452;-68
2022/09/05 03:10:57;;;;;;;5.22;1.90;;;22.00;68.50;;;;;;6097868;23;20033;-68
2022/09/05 03:13:40;;;;;;;4.90;1.98;;;21.90;68.90;;;;;;6097427;23;20422;-68
2022/09/05 03:16:25;;;;;;;4.47;2.10;;;21.80;69.30;;;;;;6097501;23;20065;-68
2022/09/05 03:19:32;;;;;;;3.85;2.17;;;21.80;69.80;;;;;;6097522;23;20007;-69
2022/09/05 03:22:30;;;;;;;5.32;1.92;;;21.70;69.90;;;;;;6085038;23;20013;-67
2022/09/05 03:25:34;;;;;;;10.65;2.30;;;21.60;69.80;;;;;;6097397;23;20015;-68
2022/09/05 03:28:20;;;;;;;9.30;2.30;;;21.60;69.90;;;;;;6097237;23;20077;-68
2022/09/05 03:31:23;;;;;;;6.53;2.13;;;21.50;70.30;;;;;;6097545;23;20007;-69
2022/09/05 03:33:57;;;;;;;10.35;2.30;;;21.40;70.40;;;;;;6097425;23;20010;-67
2022/09/05 03:36:44;;;;;;;10.50;2.60;;;21.40;70.60;;;;;;6097214;23;20013;-68
2022/09/05 03:39:33;;;;;;;6.53;2.63;;;21.40;71.00;;;;;;6097420;23;20073;-68
2022/09/05 03:42:20;;;;;;;3.75;1.67;;;21.40;71.00;;;;;;6097466;23;20002;-68
2022/09/05 03:45:04;;;;;;;5.55;2.58;;;21.30;71.00;;;;;;6096987;23;20367;-68
2022/09/05 03:47:42;;;;;;;4.97;2.03;;;21.30;71.00;;;;;;6097132;23;20021;-67
2022/09/05 03:50:50;;;;;;;5.57;1.85;;;21.30;70.90;;;;;;6096958;23;20315;-67
2022/09/05 03:53:46;;;;;;;6.65;2.28;;;21.30;70.90;;;;;;6097239;23;20037;-68
2022/09/05 03:56:27;;;;;;;5.10;1.80;;;21.30;70.70;;;;;;6096919;23;20002;-68
2022/09/05 03:59:11;;;;;;;3.17;1.63;;;21.30;70.60;;;;;;6096737;23;20208;-68
2022/09/05 04:01:46;;;;;;;3.28;1.83;;;21.30;70.60;;;;;;6097022;23;20498;-69
2022/09/05 04:04:42;;;;;;;5.03;1.90;;;21.20;70.60;;;;;;6097465;23;20070;-68
2022/09/05 04:07:17;;;;;;;4.35;1.90;;;21.20;70.60;;;;;;6096888;23;20329;-68
2022/09/05 04:10:20;;;;;;;4.90;2.20;;;21.20;70.60;;;;;;6096579;23;20047;-68
2022/09/05 04:12:54;;;;;;;5.85;2.00;;;21.20;70.60;;;;;;6063261;23;20006;-67
2022/09/05 04:15:29;;;;;;;4.15;1.70;;;21.20;70.70;;;;;;6097032;23;20002;-68
2022/09/05 04:18:21;;;;;;;3.10;1.75;;;21.20;70.70;;;;;;6096699;23;20065;-68
2022/09/05 04:20:56;;;;;;;7.68;2.20;;;21.10;70.70;;;;;;6096551;23;20010;-74
2022/09/05 04:23:40;;;;;;;3.40;1.83;;;21.10;70.60;;;;;;6096591;23;20469;-69
2022/09/05 04:26:26;;;;;;;3.38;1.80;;;21.10;70.40;;;;;;6096929;23;20003;-69
2022/09/05 04:29:02;;;;;;;2.30;1.80;;;21.10;70.50;;;;;;6096709;23;20062;-67
2022/09/05 04:31:51;;;;;;;4.80;1.92;;;21.10;70.40;;;;;;6096707;23;20007;-71
2022/09/05 04:34:50;;;;;;;5.53;1.75;;;21.10;70.50;;;;;;6096715;23;20009;-71
2022/09/05 04:37:45;;;;;;;8.85;1.92;;;21.10;70.60;;;;;;6097218;23;20057;-71
2022/09/05 04:40:29;;;;;;;11.00;1.92;;;21.10;70.70;;;;;;6077729;23;20010;-71
2022/09/05 04:42:58;;;;;;;8.45;1.90;;;21.10;70.70;;;;;;6096795;23;20006;-68
2022/09/05 04:45:29;;;;;;;10.80;2.03;;;21.10;70.70;;;;;;6096575;23;20003;-68
2022/09/05 04:47:59;;;;;;;8.48;2.17;;;21.10;70.80;;;;;;6096575;23;20334;-71
2022/09/05 04:50:27;;;;;;;4.28;1.75;;;21.10;70.80;;;;;;6096699;23;20010;-69
2022/09/05 04:53:32;;;;;;;14.32;2.22;;;21.20;70.80;;;;;;6097022;23;20013;-71
2022/09/05 04:56:00;;;;;;;11.13;2.17;;;21.20;70.50;;;;;;6097006;23;20456;-69
2022/09/05 04:58:29;;;;;;;14.85;2.45;;;21.20;70.60;;;;;;6096506;23;20073;-72
2022/09/05 05:01:00;;;;;;;11.23;2.60;;;21.20;70.80;;;;;;6096268;23;20022;-71
2022/09/05 05:03:30;;;;;;;9.53;2.43;;;;;;;;;;6096680;23;20489;-74
2022/09/05 05:06:01;;;;;;;9.15;2.08;;;21.20;70.30;;;;;;6097173;23;20384;-68
2022/09/05 05:08:39;;;;;;;9.40;2.70;;;21.20;70.70;;;;;;6096457;23;20011;-68
2022/09/05 05:11:28;;;;;;;10.85;2.38;;;21.20;70.60;;;;;;6096606;23;20067;-69
2022/09/05 05:14:17;;;;;;;7.75;2.28;;;21.20;70.70;;;;;;6083412;23;20014;-71
2022/09/05 05:17:05;;;;;;;12.07;2.55;;;21.20;70.70;;;;;;6098470;23;20006;-69
2022/09/05 05:19:44;;;;;;;14.35;2.50;;;21.20;70.70;;;;;;6098517;23;20418;-69
2022/09/05 05:22:14;;;;;;;10.15;2.78;;;21.20;70.80;;;;;;6098186;23;20426;-68
2022/09/05 05:24:53;;;;;;;15.73;3.20;;;21.20;70.90;;;;;;6098791;23;20033;-68
2022/09/05 05:27:48;;;;;;;19.95;2.95;;;21.20;71.10;;;;;;6098636;23;20137;-68
2022/09/05 05:30:26;;;;;;;16.23;3.38;;;21.20;71.00;;;;;;6064179;23;20123;-70
2022/09/05 05:32:54;;;;;;;12.70;3.75;;;21.20;71.00;;;;;;6098164;23;20445;-68
2022/09/05 05:35:31;;;;;;;13.95;2.90;;;21.20;71.10;;;;;;6098243;23;20010;-70
2022/09/05 05:38:00;;;;;;;11.00;2.28;;;21.20;71.10;;;;;;6098540;23;20011;-69
2022/09/05 05:40:30;;;;;;;14.15;2.42;;;21.20;71.20;;;;;;6098091;23;20063;-70
2022/09/05 05:43:16;;;;;;;13.50;2.58;;;21.30;71.30;;;;;;6097799;23;19999;-67
2022/09/05 05:45:42;;;;;;;10.43;2.40;;;21.30;71.10;;;;;;6098335;23;20033;-67
2022/09/05 05:48:17;;;;;;;8.55;2.40;;;21.30;71.40;;;;;;6097557;23;20069;-67
2022/09/05 05:51:12;;;;;;;4.40;2.00;;;21.30;71.20;;;;;;6096962;23;20009;-67
2022/09/05 05:53:49;;;;;;;10.85;2.40;;;21.40;71.30;;;;;;6097755;23;20002;-67
2022/09/05 05:56:23;;;;;;;5.80;2.53;;;21.40;71.20;;;;;;6097996;23;20037;-67
2022/09/05 05:58:55;;;;;;;5.07;2.60;;;21.40;71.20;;;;;;6097866;23;20306;-67
2022/09/05 06:01:29;;;;;;;10.37;2.33;;;21.40;71.20;;;;;;6098040;23;20006;-67
2022/09/05 06:04:32;;;;;;;9.10;2.30;;;21.40;71.30;;;;;;6097950;23;20433;-67
2022/09/05 06:07:45;;;;;;;6.13;2.53;;;21.50;72.00;;;;;;6098257;23;20021;-67
2022/09/05 06:10:32;;;;;;;8.85;2.20;;;21.40;71.20;;;;;;6097444;23;20054;-67
2022/09/05 06:13:38;;;;;;;10.70;2.35;;;21.50;71.60;;;;;;6097986;23;20014;-67
2022/09/05 06:16:31;;;;;;;9.18;2.85;;;21.50;72.10;;;;;;6097773;23;20045;-66
2022/09/05 06:19:10;;;;;;;3.67;1.88;;;21.60;72.30;;;;;;6097654;23;20049;-67
2022/09/05 06:22:23;;;;;;;3.45;1.90;;;21.70;72.20;;;;;;6097867;23;20334;-67
2022/09/05 06:25:22;;;;;;;9.13;2.20;;;21.70;71.30;;;;;;6009213;23;20386;-67
2022/09/05 18:13:50;;;;;;;4.22;1.75;;;;;;;;;;5131287;27;20112;-66
2022/09/05 18:16:31;;;;;;;3.28;1.83;;;;;;;;;;5131300;28;20368;-66
2022/09/05 18:18:58;;;;;;;3.42;1.60;;;;;;;;;;5131482;28;20030;-68
2022/09/05 18:21:41;;;;;;;5.57;1.30;;;;;;;;;;5131293;28;20023;-68
2022/09/05 18:24:10;;;;;;;2.53;1.50;;;;;;;;;;5130640;28;20028;-68
2022/09/05 18:26:39;;;;;;;3.25;1.63;;;;;;;;;;5131131;28;20027;-69
2022/09/05 18:29:11;;;;;;;4.88;1.65;;;;;;;;;;5131156;28;20019;-67
2022/09/05 18:31:38;;;;;;;5.80;1.67;;;;;;;;;;5131025;28;20039;-68
2022/09/05 18:34:24;;;;;;;3.50;1.63;;;;;;;;;;5130642;28;20031;-66
2022/09/05 18:36:51;;;;;;;4.40;2.20;;;;;;;;;;5130863;28;20473;-68
2022/09/05 18:39:23;;;;;;;7.93;2.78;;;;;;;;;;5131011;28;20468;-68
2022/09/05 18:42:08;;;;;;;9.93;3.78;;;;;;;;;;5130810;28;20026;-68
2022/09/05 18:44:42;;;;;;;15.55;5.60;;;;;;;;;;5130548;28;20027;-68
2022/09/05 18:47:14;;;;;;;17.65;7.82;;;;;;;;;;5130749;28;20464;-68
2022/09/05 18:49:42;;;;;;;11.70;5.53;;;;;;;;;;5129006;28;20093;-69
2022/09/05 18:52:17;;;;;;;9.27;5.20;;;;;;;;;;5127912;28;20039;-72
2022/09/05 18:54:44;;;;;;;8.18;3.60;;;;;;;;;;5127970;28;20563;-69
2022/09/05 18:57:12;;;;;;;8.73;2.47;;;;;;;;;;5130100;28;20023;-71
2022/09/05 18:59:47;;;;;;;10.10;2.75;;;;;;;;;;5130651;28;20023;-70
2022/09/05 19:02:19;;;;;;;5.20;2.50;;;;;;;;;;5130105;28;20034;-71
2022/09/05 19:04:48;;;;;;;;;;;;;;;;;;5130239;28;20028;-70
2022/09/05 19:07:19;;;;;;;11.20;2.88;;;;;;;;;;5130078;28;19945;-71
2022/09/05 19:10:01;;;;;;;6.43;3.45;;;;;;;;;;5130319;28;20031;-70
2022/09/05 19:12:27;;;;;;;8.23;3.22;;;;;;;;;;5111626;28;20399;-70
2022/09/05 19:14:55;;;;;;;10.57;3.85;;;;;;;;;;5130257;28;20030;-69
2022/09/05 19:17:33;;;;;;;8.55;3.90;;;;;;;;;;5129993;28;20023;-70
2022/09/05 19:20:11;;;;;;;8.57;3.17;;;;;;;;;;5129958;28;20023;-70
2022/09/05 19:22:49;;;;;;;3.72;2.47;;;;;;;;;;5129291;28;20610;-70
2022/09/05 19:25:35;;;;;;;2.67;2.00;;;;;;;;;;5115835;28;20541;-71
2022/09/05 19:28:21;;;;;;;7.45;2.28;;;;;;;;;;5115749;28;20034;-71
2022/09/05 19:30:56;;;;;;;5.00;2.20;;;;;;;;;;5116159;28;20023;-71
2022/09/05 19:33:26;;;;;;;6.50;2.20;;;;;;;;;;5116187;28;20032;-72
2022/09/05 19:36:18;;;;;;;7.00;2.00;;;;;;;;;;5115748;28;20028;-71
2022/09/05 19:38:47;;;;;;;5.72;1.52;;;;;;;;;;5113291;28;20180;-72
2022/09/05 19:41:15;;;;;;;7.13;1.83;;;;;;;;;;5115827;28;20028;-71
2022/09/05 19:43:58;;;;;;;4.90;1.60;;;;;;;;;;5116170;28;20041;-71
2022/09/05 19:46:24;;;;;;;5.43;1.60;;;;;;;;;;5116134;28;20055;-70
2022/09/05 19:48:54;;;;;;;6.15;1.40;;;;;;;;;;5097586;28;20030;-72
2022/09/05 19:51:23;;;;;;;4.47;1.60;;;;;;;;;;5097664;28;20053;-71
2022/09/05 19:53:54;;;;;;;4.10;1.48;;;;;;;;;;5115914;28;20089;-71
2022/09/05 19:56:21;;;;;;;8.43;1.63;;;;;;;;;;5097414;28;20138;-70
2022/09/05 19:58:47;;;;;;;6.80;1.67;;;;;;;;;;5116036;28;20475;-71
2022/09/05 20:01:18;;;;;;;4.30;2.00;;;;;;;;;;5115719;28;20103;-71
2022/09/05 20:03:48;;;;;;;7.05;1.85;;;;;;;;;;5115118;28;20023;-71
2022/09/05 20:06:18;;;;;;;8.57;1.80;;;;;;;;;;5115466;28;20034;-70
2022/09/05 20:08:44;;;;;;;5.93;1.80;;;;;;;;;;5115642;28;20023;-71
2022/09/05 20:11:11;;;;;;;8.57;1.98;;;;;;;;;;5115038;28;20404;-69
2022/09/05 20:13:37;;;;;;;5.40;2.00;;;;;;;;;;5115271;28;20038;-70
2022/09/05 20:16:03;;;;;;;9.63;2.28;;;;;;;;;;5115308;28;20016;-70
2022/09/05 20:18:39;;;;;;;5.03;1.92;;;;;;;;;;5115219;28;20035;-71
2022/09/05 20:21:05;;;;;;;4.00;1.75;;;;;;;;;;5115252;28;20129;-71
2022/09/05 20:23:31;;;;;;;6.28;1.75;;;;;;;;;;5115386;28;20020;-71
2022/09/05 20:25:58;;;;;;;2.38;1.60;;;;;;;;;;5115307;28;20114;-71
2022/09/05 20:28:34;;;;;;;4.35;2.20;;;;;;;;;;5114497;28;20028;-71
2022/09/05 20:31:02;;;;;;;9.95;1.98;;;;;;;;;;5115167;28;20028;-70
2022/09/05 20:33:31;;;;;;;7.93;2.15;;;;;;;;;;5115260;28;20084;-70
2022/09/05 20:35:59;;;;;;;5.65;1.60;;;;;;;;;;5113945;28;20024;-70
2022/09/05 20:38:27;;;;;;;3.95;2.00;;;;;;;;;;5114926;28;20544;-70
2022/09/05 20:40:59;;;;;;;5.30;2.67;;;;;;;;;;5114700;28;20023;-70
2022/09/05 20:43:46;;;;;;;4.93;2.00;;;;;;;;;;5114829;28;20015;-69
2022/09/05 20:46:12;;;;;;;7.22;2.20;;;;;;;;;;5096440;28;20024;-70
2022/09/05 20:48:41;;;;;;;6.88;2.60;;;;;;;;;;5114542;28;20106;-70
2022/09/05 20:51:09;;;;;;;5.03;2.28;;;;;;;;;;5114757;28;20027;-70
2022/09/05 20:53:40;;;;;;;6.30;2.35;;;;;;;;;;5114479;28;20081;-70
2022/09/05 20:56:08;;;;;;;5.95;2.25;;;;;;;;;;5114263;28;20024;-69
2022/09/05 20:58:36;;;;;;;7.28;2.28;;;;;;;;;;5114788;28;20024;-70
2022/09/05 21:01:12;;;;;;;4.78;2.20;;;;;;;;;;5114589;28;20024;-70
2022/09/05 21:03:41;;;;;;;4.28;2.42;;;;;;;;;;5113886;28;20539;-70
2022/09/05 21:06:30;;;;;;;6.65;2.30;;;;;;;;;;5114119;28;20091;-69
2022/09/05 21:09:08;;;;;;;7.43;2.17;;;;;;;;;;5104831;28;20071;-69
2022/09/05 21:11:34;;;;;;;5.43;2.35;;;;;;;;;;5110850;28;20056;-68
2022/09/05 21:14:03;;;;;;;3.92;2.15;;;;;;;;;;5110963;28;20032;-68
2022/09/05 21:16:30;;;;;;;11.60;2.25;;;;;;;;;;5114033;28;20472;-68
2022/09/05 21:18:57;;;;;;;7.20;2.00;;;;;;;;;;5114065;28;20034;-68
2022/09/05 21:21:27;;;;;;;6.60;2.58;;;;;;;;;;5114119;28;20023;-68
2022/09/05 21:24:11;;;;;;;4.68;2.67;;;;;;;;;;5113829;28;20035;-68
2022/09/05 21:26:37;;;;;;;17.85;2.88;;;26.90;50.80;;;;;;5113847;28;20121;-73
